sensor_id;sensor_type;location;lat;lon;timestamp;P1;durP1;ratioP1;P2;durP2;ratioP2
65073;SDS011;52218;51.224;-2.328;2022-07-23T00:01:31;5.25;;;1.17;;
65073;SDS011;52218;51.224;-2.328;2022-07-23T00:05:13;3.97;;;0.98;;
65073;SDS011;52218;51.224;-2.328;2022-07-23T00:08:55;3.50;;;1.10;;
65073;SDS011;52218;51.224;-2.328;2022-07-23T00:12:38;2.97;;;0.90;;
65073;SDS011;52218;51.224;-2.328;2022-07-23T00:16:32;3.05;;;1.00;;
65073;SDS011;52218;51.224;-2.328;2022-07-23T00:20:14;4.47;;;1.00;;
65073;SDS011;52218;51.224;-2.328;2022-07-23T00:23:56;4.60;;;0.98;;
65073;SDS011;52218;51.224;-2.328;2022-07-23T00:27:38;3.78;;;0.90;;
65073;SDS011;52218;51.224;-2.328;2022-07-23T00:31:20;2.03;;;0.95;;
65073;SDS011;52218;51.224;-2.328;2022-07-23T00:35:02;2.85;;;1.30;;
65073;SDS011;52218;51.224;-2.328;2022-07-23T00:38:44;3.25;;;0.88;;
65073;SDS011;52218;51.224;-2.328;2022-07-23T00:42:26;2.80;;;0.82;;
65073;SDS011;52218;51.224;-2.328;2022-07-23T00:46:08;3.72;;;1.40;;
65073;SDS011;52218;51.224;-2.328;2022-07-23T00:49:50;3.92;;;1.10;;
65073;SDS011;52218;51.224;-2.328;2022-07-23T00:53:31;2.10;;;0.90;;
65073;SDS011;52218;51.224;-2.328;2022-07-23T00:57:14;4.00;;;1.00;;
65073;SDS011;52218;51.224;-2.328;2022-07-23T01:00:56;5.15;;;1.00;;
65073;SDS011;52218;51.224;-2.328;2022-07-23T01:04:38;3.38;;;1.10;;
65073;SDS011;52218;51.224;-2.328;2022-07-23T01:08:20;3.28;;;0.98;;
65073;SDS011;52218;51.224;-2.328;2022-07-23T01:12:03;4.82;;;1.08;;
65073;SDS011;52218;51.224;-2.328;2022-07-23T01:15:45;2.95;;;1.15;;
65073;SDS011;52218;51.224;-2.328;2022-07-23T01:19:27;3.60;;;1.13;;
65073;SDS011;52218;51.224;-2.328;2022-07-23T01:23:09;5.65;;;1.27;;
65073;SDS011;52218;51.224;-2.328;2022-07-23T01:26:51;3.05;;;1.20;;
65073;SDS011;52218;51.224;-2.328;2022-07-23T01:30:33;2.97;;;1.27;;
65073;SDS011;52218;51.224;-2.328;2022-07-23T01:34:15;2.75;;;1.20;;
65073;SDS011;52218;51.224;-2.328;2022-07-23T01:37:57;3.55;;;1.30;;
65073;SDS011;52218;51.224;-2.328;2022-07-23T01:41:39;2.90;;;1.40;;
65073;SDS011;52218;51.224;-2.328;2022-07-23T01:45:24;4.20;;;1.67;;
65073;SDS011;52218;51.224;-2.328;2022-07-23T01:49:06;2.28;;;1.10;;
65073;SDS011;52218;51.224;-2.328;2022-07-23T01:52:48;3.33;;;1.50;;
65073;SDS011;52218;51.224;-2.328;2022-07-23T01:56:30;3.05;;;1.30;;
65073;SDS011;52218;51.224;-2.328;2022-07-23T02:00:12;1.90;;;1.20;;
65073;SDS011;52218;51.224;-2.328;2022-07-23T02:03:54;4.53;;;1.40;;
65073;SDS011;52218;51.224;-2.328;2022-07-23T02:07:36;1.90;;;1.23;;
65073;SDS011;52218;51.224;-2.328;2022-07-23T02:11:18;3.78;;;1.30;;
65073;SDS011;52218;51.224;-2.328;2022-07-23T02:15:00;4.05;;;1.30;;
65073;SDS011;52218;51.224;-2.328;2022-07-23T02:18:42;3.33;;;1.40;;
65073;SDS011;52218;51.224;-2.328;2022-07-23T02:22:24;4.03;;;1.90;;
65073;SDS011;52218;51.224;-2.328;2022-07-23T02:26:06;2.33;;;1.10;;
65073;SDS011;52218;51.224;-2.328;2022-07-23T02:29:48;2.75;;;1.20;;
65073;SDS011;52218;51.224;-2.328;2022-07-23T02:33:30;2.53;;;1.15;;
65073;SDS011;52218;51.224;-2.328;2022-07-23T02:37:12;2.85;;;1.50;;
65073;SDS011;52218;51.224;-2.328;2022-07-23T02:40:54;4.07;;;1.77;;
65073;SDS011;52218;51.224;-2.328;2022-07-23T02:44:36;3.20;;;1.20;;
65073;SDS011;52218;51.224;-2.328;2022-07-23T02:48:18;2.72;;;1.13;;
65073;SDS011;52218;51.224;-2.328;2022-07-23T02:52:01;2.65;;;1.30;;
65073;SDS011;52218;51.224;-2.328;2022-07-23T02:55:43;2.53;;;1.33;;
65073;SDS011;52218;51.224;-2.328;2022-07-23T02:59:25;2.50;;;1.25;;
65073;SDS011;52218;51.224;-2.328;2022-07-23T03:03:07;1.77;;;1.20;;
65073;SDS011;52218;51.224;-2.328;2022-07-23T03:06:49;3.67;;;1.30;;
65073;SDS011;52218;51.224;-2.328;2022-07-23T03:10:31;3.50;;;1.30;;
65073;SDS011;52218;51.224;-2.328;2022-07-23T03:14:13;2.58;;;1.25;;
65073;SDS011;52218;51.224;-2.328;2022-07-23T03:17:57;3.88;;;1.83;;
65073;SDS011;52218;51.224;-2.328;2022-07-23T03:21:40;2.92;;;1.33;;
65073;SDS011;52218;51.224;-2.328;2022-07-23T03:25:22;2.72;;;1.30;;
65073;SDS011;52218;51.224;-2.328;2022-07-23T03:29:04;4.50;;;1.15;;
65073;SDS011;52218;51.224;-2.328;2022-07-23T03:32:46;2.40;;;1.40;;
65073;SDS011;52218;51.224;-2.328;2022-07-23T03:36:28;2.45;;;1.30;;
65073;SDS011;52218;51.224;-2.328;2022-07-23T03:40:10;3.60;;;1.42;;
65073;SDS011;52218;51.224;-2.328;2022-07-23T03:43:52;3.38;;;1.20;;
65073;SDS011;52218;51.224;-2.328;2022-07-23T03:47:34;3.13;;;1.30;;
65073;SDS011;52218;51.224;-2.328;2022-07-23T03:51:16;3.05;;;1.50;;
65073;SDS011;52218;51.224;-2.328;2022-07-23T03:54:58;4.10;;;1.30;;
65073;SDS011;52218;51.224;-2.328;2022-07-23T03:58:40;5.03;;;1.52;;
65073;SDS011;52218;51.224;-2.328;2022-07-23T04:02:22;3.65;;;1.48;;
65073;SDS011;52218;51.224;-2.328;2022-07-23T04:06:04;3.00;;;2.00;;
65073;SDS011;52218;51.224;-2.328;2022-07-23T04:09:46;4.72;;;1.48;;
65073;SDS011;52218;51.224;-2.328;2022-07-23T04:13:29;2.58;;;1.50;;
65073;SDS011;52218;51.224;-2.328;2022-07-23T04:17:11;3.17;;;1.60;;
65073;SDS011;52218;51.224;-2.328;2022-07-23T04:20:54;2.15;;;1.33;;
65073;SDS011;52218;51.224;-2.328;2022-07-23T04:24:36;4.07;;;1.45;;
65073;SDS011;52218;51.224;-2.328;2022-07-23T04:28:19;3.13;;;1.40;;
65073;SDS011;52218;51.224;-2.328;2022-07-23T04:32:01;3.97;;;1.55;;
65073;SDS011;52218;51.224;-2.328;2022-07-23T04:35:46;3.00;;;1.52;;
65073;SDS011;52218;51.224;-2.328;2022-07-23T04:39:28;2.75;;;1.58;;
65073;SDS011;52218;51.224;-2.328;2022-07-23T04:43:10;2.45;;;1.70;;
65073;SDS011;52218;51.224;-2.328;2022-07-23T04:46:52;2.80;;;1.80;;
65073;SDS011;52218;51.224;-2.328;2022-07-23T04:50:34;3.45;;;1.70;;
65073;SDS011;52218;51.224;-2.328;2022-07-23T04:54:16;4.30;;;2.20;;
65073;SDS011;52218;51.224;-2.328;2022-07-23T04:57:58;3.47;;;1.80;;
65073;SDS011;52218;51.224;-2.328;2022-07-23T05:01:40;2.20;;;1.48;;
65073;SDS011;52218;51.224;-2.328;2022-07-23T05:05:23;3.55;;;1.55;;
65073;SDS011;52218;51.224;-2.328;2022-07-23T05:09:05;4.03;;;1.45;;
65073;SDS011;52218;51.224;-2.328;2022-07-23T05:12:47;4.85;;;1.80;;
65073;SDS011;52218;51.224;-2.328;2022-07-23T05:16:29;3.42;;;1.65;;
65073;SDS011;52218;51.224;-2.328;2022-07-23T05:20:11;1.83;;;1.50;;
65073;SDS011;52218;51.224;-2.328;2022-07-23T05:23:54;5.40;;;1.50;;
65073;SDS011;52218;51.224;-2.328;2022-07-23T05:27:36;3.70;;;1.73;;
65073;SDS011;52218;51.224;-2.328;2022-07-23T05:31:18;4.13;;;1.45;;
65073;SDS011;52218;51.224;-2.328;2022-07-23T05:35:00;1.98;;;1.30;;
65073;SDS011;52218;51.224;-2.328;2022-07-23T05:38:43;2.90;;;1.40;;
65073;SDS011;52218;51.224;-2.328;2022-07-23T05:42:24;1.80;;;1.27;;
65073;SDS011;52218;51.224;-2.328;2022-07-23T05:46:06;2.72;;;1.30;;
65073;SDS011;52218;51.224;-2.328;2022-07-23T05:49:49;3.08;;;1.27;;
65073;SDS011;52218;51.224;-2.328;2022-07-23T05:53:31;2.25;;;1.10;;
65073;SDS011;52218;51.224;-2.328;2022-07-23T05:57:14;2.28;;;1.13;;
65073;SDS011;52218;51.224;-2.328;2022-07-23T06:00:56;1.52;;;1.10;;
65073;SDS011;52218;51.224;-2.328;2022-07-23T06:04:37;2.78;;;1.10;;
65073;SDS011;52218;51.224;-2.328;2022-07-23T06:08:19;2.28;;;1.25;;
65073;SDS011;52218;51.224;-2.328;2022-07-23T06:12:01;2.05;;;1.20;;
65073;SDS011;52218;51.224;-2.328;2022-07-23T06:15:43;3.40;;;1.38;;
65073;SDS011;52218;51.224;-2.328;2022-07-23T06:19:26;5.35;;;1.20;;
65073;SDS011;52218;51.224;-2.328;2022-07-23T06:23:08;2.47;;;1.10;;
65073;SDS011;52218;51.224;-2.328;2022-07-23T06:26:50;2.50;;;1.00;;
65073;SDS011;52218;51.224;-2.328;2022-07-23T06:30:31;2.95;;;1.05;;
65073;SDS011;52218;51.224;-2.328;2022-07-23T06:34:14;2.20;;;1.23;;
65073;SDS011;52218;51.224;-2.328;2022-07-23T06:37:56;2.75;;;0.95;;
65073;SDS011;52218;51.224;-2.328;2022-07-23T06:41:38;1.90;;;0.95;;
65073;SDS011;52218;51.224;-2.328;2022-07-23T06:45:20;3.08;;;1.00;;
65073;SDS011;52218;51.224;-2.328;2022-07-23T06:49:02;2.33;;;1.02;;
65073;SDS011;52218;51.224;-2.328;2022-07-23T06:52:46;2.20;;;0.82;;
65073;SDS011;52218;51.224;-2.328;2022-07-23T06:56:28;1.83;;;0.85;;
65073;SDS011;52218;51.224;-2.328;2022-07-23T07:00:10;2.10;;;0.80;;
65073;SDS011;52218;51.224;-2.328;2022-07-23T07:03:53;1.75;;;0.93;;
65073;SDS011;52218;51.224;-2.328;2022-07-23T07:07:35;3.30;;;0.90;;
65073;SDS011;52218;51.224;-2.328;2022-07-23T07:11:17;2.00;;;0.90;;
65073;SDS011;52218;51.224;-2.328;2022-07-23T07:14:59;1.80;;;0.90;;
65073;SDS011;52218;51.224;-2.328;2022-07-23T07:18:40;2.45;;;1.00;;
65073;SDS011;52218;51.224;-2.328;2022-07-23T07:22:24;3.08;;;1.10;;
65073;SDS011;52218;51.224;-2.328;2022-07-23T07:26:06;2.13;;;1.15;;
65073;SDS011;52218;51.224;-2.328;2022-07-23T07:29:47;2.25;;;1.08;;
65073;SDS011;52218;51.224;-2.328;2022-07-23T07:33:29;1.67;;;0.90;;
65073;SDS011;52218;51.224;-2.328;2022-07-23T07:37:11;2.10;;;0.93;;
65073;SDS011;52218;51.224;-2.328;2022-07-23T07:40:53;2.92;;;0.80;;
65073;SDS011;52218;51.224;-2.328;2022-07-23T07:44:36;1.75;;;0.90;;
65073;SDS011;52218;51.224;-2.328;2022-07-23T07:48:18;2.13;;;0.70;;
65073;SDS011;52218;51.224;-2.328;2022-07-23T07:52:00;1.95;;;0.70;;
65073;SDS011;52218;51.224;-2.328;2022-07-23T07:55:42;1.13;;;0.50;;
65073;SDS011;52218;51.224;-2.328;2022-07-23T07:59:31;2.33;;;0.50;;
65073;SDS011;52218;51.224;-2.328;2022-07-23T08:03:14;0.82;;;0.40;;
65073;SDS011;52218;51.224;-2.328;2022-07-23T08:06:56;1.33;;;0.40;;
65073;SDS011;52218;51.224;-2.328;2022-07-23T08:10:38;1.10;;;0.50;;
65073;SDS011;52218;51.224;-2.328;2022-07-23T08:14:20;2.33;;;0.93;;
65073;SDS011;52218;51.224;-2.328;2022-07-23T08:18:02;1.15;;;0.50;;
65073;SDS011;52218;51.224;-2.328;2022-07-23T08:21:44;1.27;;;0.50;;
65073;SDS011;52218;51.224;-2.328;2022-07-23T08:25:27;1.52;;;0.40;;
65073;SDS011;52218;51.224;-2.328;2022-07-23T08:29:12;1.80;;;0.50;;
65073;SDS011;52218;51.224;-2.328;2022-07-23T08:32:55;1.10;;;0.50;;
65073;SDS011;52218;51.224;-2.328;2022-07-23T08:36:43;1.27;;;0.40;;
65073;SDS011;52218;51.224;-2.328;2022-07-23T08:40:26;0.50;;;0.20;;
65073;SDS011;52218;51.224;-2.328;2022-07-23T08:44:09;0.82;;;0.30;;
65073;SDS011;52218;51.224;-2.328;2022-07-23T08:47:53;0.68;;;0.30;;
65073;SDS011;52218;51.224;-2.328;2022-07-23T08:51:37;0.52;;;0.20;;
65073;SDS011;52218;51.224;-2.328;2022-07-23T08:55:20;0.93;;;0.32;;
65073;SDS011;52218;51.224;-2.328;2022-07-23T08:59:03;0.65;;;0.20;;
65073;SDS011;52218;51.224;-2.328;2022-07-23T09:02:45;0.60;;;0.28;;
65073;SDS011;52218;51.224;-2.328;2022-07-23T09:06:28;0.38;;;0.10;;
65073;SDS011;52218;51.224;-2.328;2022-07-23T09:10:10;0.30;;;0.20;;
65073;SDS011;52218;51.224;-2.328;2022-07-23T09:13:53;0.82;;;0.20;;
65073;SDS011;52218;51.224;-2.328;2022-07-23T09:17:41;0.60;;;0.30;;
65073;SDS011;52218;51.224;-2.328;2022-07-23T09:25:16;0.20;;;0.20;;
65073;SDS011;52218;51.224;-2.328;2022-07-23T09:29:01;0.30;;;0.20;;
65073;SDS011;52218;51.224;-2.328;2022-07-23T09:33:06;0.30;;;0.13;;
65073;SDS011;52218;51.224;-2.328;2022-07-23T09:36:50;1.00;;;0.25;;
65073;SDS011;52218;51.224;-2.328;2022-07-23T09:40:39;0.30;;;0.20;;
65073;SDS011;52218;51.224;-2.328;2022-07-23T09:44:21;0.25;;;0.20;;
65073;SDS011;52218;51.224;-2.328;2022-07-23T09:48:13;0.60;;;0.20;;
65073;SDS011;52218;51.224;-2.328;2022-07-23T09:51:57;0.40;;;0.20;;
65073;SDS011;52218;51.224;-2.328;2022-07-23T09:55:41;0.50;;;0.30;;
65073;SDS011;52218;51.224;-2.328;2022-07-23T09:59:27;0.40;;;0.20;;
65073;SDS011;52218;51.224;-2.328;2022-07-23T10:03:11;0.85;;;0.30;;
65073;SDS011;52218;51.224;-2.328;2022-07-23T10:06:56;1.00;;;0.20;;
65073;SDS011;52218;51.224;-2.328;2022-07-23T10:10:42;1.10;;;0.30;;
65073;SDS011;52218;51.224;-2.328;2022-07-23T10:14:26;0.60;;;0.30;;
65073;SDS011;52218;51.224;-2.328;2022-07-23T10:18:11;0.82;;;0.30;;
65073;SDS011;52218;51.224;-2.328;2022-07-23T10:22:13;1.85;;;0.30;;
65073;SDS011;52218;51.224;-2.328;2022-07-23T10:26:11;0.88;;;0.30;;
65073;SDS011;52218;51.224;-2.328;2022-07-23T10:30:01;0.40;;;0.30;;
65073;SDS011;52218;51.224;-2.328;2022-07-23T10:33:54;0.30;;;0.30;;
65073;SDS011;52218;51.224;-2.328;2022-07-23T10:37:55;1.15;;;0.25;;
65073;SDS011;52218;51.224;-2.328;2022-07-23T10:41:43;0.65;;;0.30;;
65073;SDS011;52218;51.224;-2.328;2022-07-23T10:45:31;0.40;;;0.22;;
65073;SDS011;52218;51.224;-2.328;2022-07-23T10:49:20;0.45;;;0.30;;
65073;SDS011;52218;51.224;-2.328;2022-07-23T11:00:39;1.23;;;0.35;;
65073;SDS011;52218;51.224;-2.328;2022-07-23T11:04:37;1.92;;;0.57;;
65073;SDS011;52218;51.224;-2.328;2022-07-23T11:08:30;0.90;;;0.40;;
65073;SDS011;52218;51.224;-2.328;2022-07-23T11:24:08;0.85;;;0.30;;
65073;SDS011;52218;51.224;-2.328;2022-07-23T11:27:52;1.00;;;0.57;;
65073;SDS011;52218;51.224;-2.328;2022-07-23T11:31:35;1.65;;;0.50;;
65073;SDS011;52218;51.224;-2.328;2022-07-23T11:35:22;0.90;;;0.40;;
65073;SDS011;52218;51.224;-2.328;2022-07-23T11:39:09;1.42;;;0.40;;
65073;SDS011;52218;51.224;-2.328;2022-07-23T11:42:52;0.50;;;0.30;;
65073;SDS011;52218;51.224;-2.328;2022-07-23T11:46:59;1.33;;;0.25;;
65073;SDS011;52218;51.224;-2.328;2022-07-23T11:50:45;1.00;;;0.40;;
65073;SDS011;52218;51.224;-2.328;2022-07-23T11:54:27;0.90;;;0.40;;
65073;SDS011;52218;51.224;-2.328;2022-07-23T11:58:09;1.08;;;0.40;;
65073;SDS011;52218;51.224;-2.328;2022-07-23T12:01:58;0.82;;;0.40;;
65073;SDS011;52218;51.224;-2.328;2022-07-23T12:05:41;1.00;;;0.32;;
65073;SDS011;52218;51.224;-2.328;2022-07-23T12:09:23;0.82;;;0.40;;
65073;SDS011;52218;51.224;-2.328;2022-07-23T12:13:06;0.68;;;0.25;;
65073;SDS011;52218;51.224;-2.328;2022-07-23T12:17:11;0.93;;;0.40;;
65073;SDS011;52218;51.224;-2.328;2022-07-23T12:20:54;1.33;;;0.40;;
65073;SDS011;52218;51.224;-2.328;2022-07-23T12:28:58;0.55;;;0.30;;
65073;SDS011;52218;51.224;-2.328;2022-07-23T12:32:42;0.50;;;0.20;;
65073;SDS011;52218;51.224;-2.328;2022-07-23T12:36:36;1.02;;;0.40;;
65073;SDS011;52218;51.224;-2.328;2022-07-23T12:40:31;1.10;;;0.30;;
65073;SDS011;52218;51.224;-2.328;2022-07-23T12:44:25;0.60;;;0.30;;
65073;SDS011;52218;51.224;-2.328;2022-07-23T12:48:07;0.82;;;0.40;;
65073;SDS011;52218;51.224;-2.328;2022-07-23T12:51:49;1.52;;;0.50;;
65073;SDS011;52218;51.224;-2.328;2022-07-23T12:55:32;0.93;;;0.40;;
65073;SDS011;52218;51.224;-2.328;2022-07-23T12:59:34;1.48;;;0.40;;
65073;SDS011;52218;51.224;-2.328;2022-07-23T13:03:30;0.68;;;0.38;;
65073;SDS011;52218;51.224;-2.328;2022-07-23T13:07:19;0.95;;;0.40;;
65073;SDS011;52218;51.224;-2.328;2022-07-23T13:11:02;1.25;;;0.60;;
65073;SDS011;52218;51.224;-2.328;2022-07-23T13:14:45;1.65;;;0.50;;
65073;SDS011;52218;51.224;-2.328;2022-07-23T13:18:27;1.88;;;0.68;;
65073;SDS011;52218;51.224;-2.328;2022-07-23T13:22:10;1.00;;;0.50;;
65073;SDS011;52218;51.224;-2.328;2022-07-23T13:25:52;1.13;;;0.47;;
65073;SDS011;52218;51.224;-2.328;2022-07-23T13:29:35;1.00;;;0.50;;
65073;SDS011;52218;51.224;-2.328;2022-07-23T13:33:19;0.93;;;0.50;;
65073;SDS011;52218;51.224;-2.328;2022-07-23T13:37:03;0.82;;;0.40;;
65073;SDS011;52218;51.224;-2.328;2022-07-23T13:40:46;2.22;;;0.40;;
65073;SDS011;52218;51.224;-2.328;2022-07-23T13:44:30;1.42;;;0.40;;
65073;SDS011;52218;51.224;-2.328;2022-07-23T13:48:14;1.00;;;0.40;;
65073;SDS011;52218;51.224;-2.328;2022-07-23T13:51:57;2.03;;;0.75;;
65073;SDS011;52218;51.224;-2.328;2022-07-23T13:55:41;1.55;;;0.50;;
65073;SDS011;52218;51.224;-2.328;2022-07-23T13:59:29;2.05;;;0.60;;
65073;SDS011;52218;51.224;-2.328;2022-07-23T14:03:12;1.63;;;0.57;;
65073;SDS011;52218;51.224;-2.328;2022-07-23T14:06:55;1.50;;;0.60;;
65073;SDS011;52218;51.224;-2.328;2022-07-23T14:10:37;1.15;;;0.55;;
65073;SDS011;52218;51.224;-2.328;2022-07-23T14:14:20;2.03;;;0.68;;
65073;SDS011;52218;51.224;-2.328;2022-07-23T14:18:03;2.08;;;0.70;;
65073;SDS011;52218;51.224;-2.328;2022-07-23T14:21:45;1.48;;;0.68;;
65073;SDS011;52218;51.224;-2.328;2022-07-23T14:25:27;1.67;;;0.60;;
65073;SDS011;52218;51.224;-2.328;2022-07-23T14:29:09;1.48;;;0.77;;
65073;SDS011;52218;51.224;-2.328;2022-07-23T14:32:52;1.58;;;0.60;;
65073;SDS011;52218;51.224;-2.328;2022-07-23T14:36:34;1.40;;;0.75;;
65073;SDS011;52218;51.224;-2.328;2022-07-23T14:40:19;1.98;;;0.80;;
65073;SDS011;52218;51.224;-2.328;2022-07-23T14:44:03;1.50;;;0.60;;
65073;SDS011;52218;51.224;-2.328;2022-07-23T14:47:46;2.60;;;0.90;;
65073;SDS011;52218;51.224;-2.328;2022-07-23T14:51:28;1.77;;;0.70;;
65073;SDS011;52218;51.224;-2.328;2022-07-23T14:55:10;1.42;;;0.82;;
65073;SDS011;52218;51.224;-2.328;2022-07-23T14:58:52;2.13;;;0.80;;
65073;SDS011;52218;51.224;-2.328;2022-07-23T15:02:37;2.75;;;0.80;;
65073;SDS011;52218;51.224;-2.328;2022-07-23T15:06:22;3.05;;;0.80;;
65073;SDS011;52218;51.224;-2.328;2022-07-23T15:10:04;1.10;;;0.60;;
65073;SDS011;52218;51.224;-2.328;2022-07-23T15:13:46;3.80;;;0.95;;
65073;SDS011;52218;51.224;-2.328;2022-07-23T15:17:29;2.60;;;0.88;;
65073;SDS011;52218;51.224;-2.328;2022-07-23T15:21:11;2.00;;;0.88;;
65073;SDS011;52218;51.224;-2.328;2022-07-23T15:24:54;1.90;;;0.75;;
65073;SDS011;52218;51.224;-2.328;2022-07-23T15:28:38;2.35;;;0.82;;
65073;SDS011;52218;51.224;-2.328;2022-07-23T15:32:20;1.98;;;0.75;;
65073;SDS011;52218;51.224;-2.328;2022-07-23T15:36:02;3.95;;;1.15;;
65073;SDS011;52218;51.224;-2.328;2022-07-23T15:39:46;1.35;;;0.70;;
65073;SDS011;52218;51.224;-2.328;2022-07-23T15:43:28;1.73;;;0.90;;
65073;SDS011;52218;51.224;-2.328;2022-07-23T15:47:13;2.92;;;0.95;;
65073;SDS011;52218;51.224;-2.328;2022-07-23T15:50:57;3.30;;;0.80;;
65073;SDS011;52218;51.224;-2.328;2022-07-23T15:54:40;2.67;;;1.20;;
65073;SDS011;52218;51.224;-2.328;2022-07-23T15:58:24;2.55;;;0.70;;
65073;SDS011;52218;51.224;-2.328;2022-07-23T16:02:10;2.53;;;1.10;;
65073;SDS011;52218;51.224;-2.328;2022-07-23T16:05:53;1.55;;;0.80;;
65073;SDS011;52218;51.224;-2.328;2022-07-23T16:09:35;1.95;;;0.80;;
65073;SDS011;52218;51.224;-2.328;2022-07-23T16:13:17;3.63;;;0.90;;
65073;SDS011;52218;51.224;-2.328;2022-07-23T16:16:59;1.98;;;0.85;;
65073;SDS011;52218;51.224;-2.328;2022-07-23T16:20:42;2.17;;;1.00;;
65073;SDS011;52218;51.224;-2.328;2022-07-23T16:24:24;2.40;;;0.75;;
65073;SDS011;52218;51.224;-2.328;2022-07-23T16:28:06;2.75;;;0.85;;
65073;SDS011;52218;51.224;-2.328;2022-07-23T16:31:48;2.15;;;0.80;;
65073;SDS011;52218;51.224;-2.328;2022-07-23T16:35:30;3.15;;;0.90;;
65073;SDS011;52218;51.224;-2.328;2022-07-23T16:39:12;2.53;;;0.73;;
65073;SDS011;52218;51.224;-2.328;2022-07-23T16:42:55;1.45;;;0.70;;
65073;SDS011;52218;51.224;-2.328;2022-07-23T16:46:38;3.33;;;0.93;;
65073;SDS011;52218;51.224;-2.328;2022-07-23T16:50:21;2.38;;;0.80;;
65073;SDS011;52218;51.224;-2.328;2022-07-23T16:54:03;2.22;;;0.93;;
65073;SDS011;52218;51.224;-2.328;2022-07-23T16:57:48;1.98;;;0.90;;
65073;SDS011;52218;51.224;-2.328;2022-07-23T17:01:30;2.45;;;1.08;;
65073;SDS011;52218;51.224;-2.328;2022-07-23T17:05:12;2.35;;;0.80;;
65073;SDS011;52218;51.224;-2.328;2022-07-23T17:08:54;2.50;;;0.90;;
65073;SDS011;52218;51.224;-2.328;2022-07-23T17:12:36;2.38;;;1.00;;
65073;SDS011;52218;51.224;-2.328;2022-07-23T17:16:19;2.92;;;0.73;;
65073;SDS011;52218;51.224;-2.328;2022-07-23T17:20:03;2.17;;;0.80;;
65073;SDS011;52218;51.224;-2.328;2022-07-23T17:23:46;3.20;;;1.00;;
65073;SDS011;52218;51.224;-2.328;2022-07-23T17:27:29;1.83;;;0.70;;
65073;SDS011;52218;51.224;-2.328;2022-07-23T17:31:10;1.55;;;0.80;;
65073;SDS011;52218;51.224;-2.328;2022-07-23T17:34:53;2.80;;;0.90;;
65073;SDS011;52218;51.224;-2.328;2022-07-23T17:38:34;1.98;;;0.90;;
65073;SDS011;52218;51.224;-2.328;2022-07-23T17:42:17;2.45;;;0.80;;
65073;SDS011;52218;51.224;-2.328;2022-07-23T17:45:59;2.75;;;0.90;;
65073;SDS011;52218;51.224;-2.328;2022-07-23T17:49:41;1.92;;;0.98;;
65073;SDS011;52218;51.224;-2.328;2022-07-23T17:53:23;2.65;;;1.17;;
65073;SDS011;52218;51.224;-2.328;2022-07-23T17:57:06;2.55;;;1.13;;
65073;SDS011;52218;51.224;-2.328;2022-07-23T18:00:49;2.42;;;1.02;;
65073;SDS011;52218;51.224;-2.328;2022-07-23T18:04:31;1.88;;;0.80;;
65073;SDS011;52218;51.224;-2.328;2022-07-23T18:08:13;2.95;;;1.00;;
65073;SDS011;52218;51.224;-2.328;2022-07-23T18:11:55;2.50;;;1.10;;
65073;SDS011;52218;51.224;-2.328;2022-07-23T18:15:37;2.90;;;1.05;;
65073;SDS011;52218;51.224;-2.328;2022-07-23T18:19:19;2.42;;;1.00;;
65073;SDS011;52218;51.224;-2.328;2022-07-23T18:23:01;3.53;;;1.10;;
65073;SDS011;52218;51.224;-2.328;2022-07-23T18:26:43;2.00;;;0.95;;
65073;SDS011;52218;51.224;-2.328;2022-07-23T18:30:25;2.45;;;1.02;;
65073;SDS011;52218;51.224;-2.328;2022-07-23T18:34:08;1.98;;;1.08;;
65073;SDS011;52218;51.224;-2.328;2022-07-23T18:37:50;3.38;;;1.10;;
65073;SDS011;52218;51.224;-2.328;2022-07-23T18:41:34;5.13;;;1.23;;
65073;SDS011;52218;51.224;-2.328;2022-07-23T18:45:16;3.30;;;1.10;;
65073;SDS011;52218;51.224;-2.328;2022-07-23T18:48:58;2.50;;;1.08;;
65073;SDS011;52218;51.224;-2.328;2022-07-23T18:52:41;3.47;;;1.10;;
65073;SDS011;52218;51.224;-2.328;2022-07-23T18:56:23;2.47;;;0.93;;
65073;SDS011;52218;51.224;-2.328;2022-07-23T19:00:06;4.07;;;0.98;;
65073;SDS011;52218;51.224;-2.328;2022-07-23T19:03:49;3.58;;;1.30;;
65073;SDS011;52218;51.224;-2.328;2022-07-23T19:07:31;4.22;;;1.10;;
65073;SDS011;52218;51.224;-2.328;2022-07-23T19:11:13;2.33;;;1.20;;
65073;SDS011;52218;51.224;-2.328;2022-07-23T19:14:55;2.17;;;1.00;;
65073;SDS011;52218;51.224;-2.328;2022-07-23T19:18:37;2.30;;;1.05;;
65073;SDS011;52218;51.224;-2.328;2022-07-23T19:22:19;3.45;;;1.15;;
65073;SDS011;52218;51.224;-2.328;2022-07-23T19:26:01;2.40;;;1.05;;
65073;SDS011;52218;51.224;-2.328;2022-07-23T19:29:49;3.22;;;1.20;;
65073;SDS011;52218;51.224;-2.328;2022-07-23T19:33:31;3.55;;;1.20;;
65073;SDS011;52218;51.224;-2.328;2022-07-23T19:37:13;3.65;;;1.25;;
65073;SDS011;52218;51.224;-2.328;2022-07-23T19:40:56;3.55;;;1.27;;
65073;SDS011;52218;51.224;-2.328;2022-07-23T19:44:38;5.45;;;1.70;;
65073;SDS011;52218;51.224;-2.328;2022-07-23T19:48:20;4.47;;;1.02;;
65073;SDS011;52218;51.224;-2.328;2022-07-23T19:52:02;3.28;;;1.52;;
65073;SDS011;52218;51.224;-2.328;2022-07-23T19:55:44;3.85;;;1.27;;
65073;SDS011;52218;51.224;-2.328;2022-07-23T19:59:26;3.15;;;1.27;;
65073;SDS011;52218;51.224;-2.328;2022-07-23T20:03:08;3.83;;;1.50;;
65073;SDS011;52218;51.224;-2.328;2022-07-23T20:06:50;3.03;;;1.35;;
65073;SDS011;52218;51.224;-2.328;2022-07-23T20:10:32;4.50;;;1.17;;
65073;SDS011;52218;51.224;-2.328;2022-07-23T20:14:14;2.28;;;1.13;;
65073;SDS011;52218;51.224;-2.328;2022-07-23T20:17:57;4.53;;;1.00;;
65073;SDS011;52218;51.224;-2.328;2022-07-23T20:21:39;2.65;;;1.00;;
65073;SDS011;52218;51.224;-2.328;2022-07-23T20:25:25;2.47;;;1.00;;
65073;SDS011;52218;51.224;-2.328;2022-07-23T20:29:07;3.17;;;1.08;;
65073;SDS011;52218;51.224;-2.328;2022-07-23T20:32:49;4.30;;;1.38;;
65073;SDS011;52218;51.224;-2.328;2022-07-23T20:36:31;5.38;;;1.23;;
65073;SDS011;52218;51.224;-2.328;2022-07-23T20:40:13;2.63;;;1.10;;
65073;SDS011;52218;51.224;-2.328;2022-07-23T20:43:55;4.00;;;1.30;;
65073;SDS011;52218;51.224;-2.328;2022-07-23T20:47:38;2.67;;;1.00;;
65073;SDS011;52218;51.224;-2.328;2022-07-23T20:51:20;5.20;;;1.17;;
65073;SDS011;52218;51.224;-2.328;2022-07-23T20:55:02;3.92;;;1.35;;
65073;SDS011;52218;51.224;-2.328;2022-07-23T20:58:45;2.70;;;1.30;;
65073;SDS011;52218;51.224;-2.328;2022-07-23T21:02:27;3.72;;;1.33;;
65073;SDS011;52218;51.224;-2.328;2022-07-23T21:06:09;4.63;;;1.60;;
65073;SDS011;52218;51.224;-2.328;2022-07-23T21:09:51;5.63;;;1.48;;
65073;SDS011;52218;51.224;-2.328;2022-07-23T21:13:34;3.17;;;1.27;;
65073;SDS011;52218;51.224;-2.328;2022-07-23T21:17:16;3.95;;;1.42;;
65073;SDS011;52218;51.224;-2.328;2022-07-23T21:20:57;3.13;;;1.30;;
65073;SDS011;52218;51.224;-2.328;2022-07-23T21:24:49;4.07;;;1.65;;
65073;SDS011;52218;51.224;-2.328;2022-07-23T21:28:31;4.55;;;1.40;;
65073;SDS011;52218;51.224;-2.328;2022-07-23T21:32:13;5.00;;;1.80;;
65073;SDS011;52218;51.224;-2.328;2022-07-23T21:35:55;3.35;;;1.50;;
65073;SDS011;52218;51.224;-2.328;2022-07-23T21:39:37;4.53;;;1.42;;
65073;SDS011;52218;51.224;-2.328;2022-07-23T21:43:19;5.10;;;1.50;;
65073;SDS011;52218;51.224;-2.328;2022-07-23T21:47:03;6.05;;;1.80;;
65073;SDS011;52218;51.224;-2.328;2022-07-23T21:50:45;3.30;;;1.38;;
65073;SDS011;52218;51.224;-2.328;2022-07-23T21:54:27;4.22;;;1.38;;
65073;SDS011;52218;51.224;-2.328;2022-07-23T21:58:09;5.10;;;1.63;;
65073;SDS011;52218;51.224;-2.328;2022-07-23T22:01:52;3.67;;;1.50;;
65073;SDS011;52218;51.224;-2.328;2022-07-23T22:05:34;5.50;;;1.52;;
65073;SDS011;52218;51.224;-2.328;2022-07-23T22:09:16;4.18;;;1.50;;
65073;SDS011;52218;51.224;-2.328;2022-07-23T22:12:58;4.85;;;1.42;;
65073;SDS011;52218;51.224;-2.328;2022-07-23T22:16:40;5.50;;;1.60;;
65073;SDS011;52218;51.224;-2.328;2022-07-23T22:20:22;2.90;;;1.40;;
65073;SDS011;52218;51.224;-2.328;2022-07-23T22:24:04;4.45;;;1.58;;
65073;SDS011;52218;51.224;-2.328;2022-07-23T22:27:47;4.30;;;1.40;;
65073;SDS011;52218;51.224;-2.328;2022-07-23T22:31:29;4.57;;;1.55;;